KBBP

Marlboro County Jetport - H E Avent Field Airport

Bennettsville, South Carolina, USA
METAR KBBP 181615Z AUTO 03009KT 10SM CLR 18/05 A3040 RMK AO2
Observed Flight Rules
Oct-18 @ 16:15 UTC (19 minutes ago) Visual Flight Rules
Wind Visibility Clouds
30° at 9 knots 10 miles
  • Clear skies
Temperatures Readings
Current 18°C / 64°F
Dewpoint 5°C / 41°F
Humidity 43%
Altimeter 30.4" Hg
Pressure 1029 hPa
Elevation 45
METAR KBBP 181615Z AUTO 03009KT 10SM CLR 18/05 A3040 RMK AO2
Observed Flight Rules
Oct-18 @ 16:15 UTC
(19 minutes ago)
VFR
Wind Visibility
30° at 9 knots 10 miles
Clouds
  • Clear skies
Temperature Dewpoint
18°C / 64°F 5°C / 41°F
Humidity Altimeter Pressure
43% 30.4" Hg 1029 hPa